createdAt,value
2018-09-29T00:01:49.483Z,81.00
2018-09-29T00:04:20.349Z,81.60
2018-09-29T00:06:50.977Z,82.20
2018-09-29T00:09:21.815Z,82.90
2018-09-29T00:11:52.471Z,83.70
2018-09-29T00:14:23.344Z,83.90
2018-09-29T00:16:53.927Z,84.50
2018-09-29T00:19:24.540Z,84.90
2018-09-29T00:21:55.020Z,85.80
2018-09-29T00:24:25.580Z,86.60
2018-09-29T00:26:56.169Z,87.60
2018-09-29T00:29:26.726Z,87.80
2018-09-29T00:31:57.424Z,89.00
2018-09-29T00:34:28.064Z,90.50
2018-09-29T00:36:58.473Z,92.00
2018-09-29T00:39:28.812Z,93.90
2018-09-29T00:41:59.391Z,96.40
2018-09-29T00:44:30.070Z,99.00
2018-09-29T00:47:00.856Z,99.90
2018-09-29T00:49:31.787Z,99.90
2018-09-29T00:52:02.806Z,99.90
2018-09-29T00:54:34.329Z,99.90
2018-09-29T00:57:04.971Z,99.90
2018-09-29T00:59:36.055Z,99.90
2018-09-29T01:02:06.608Z,99.90
2018-09-29T01:04:37.219Z,99.90
2018-09-29T01:07:07.824Z,99.90
2018-09-29T01:09:38.648Z,99.90
2018-09-29T01:12:09.228Z,99.90
2018-09-29T01:14:39.770Z,99.90
2018-09-29T01:17:10.469Z,99.90
2018-09-29T01:19:41.343Z,99.90
2018-09-29T01:22:12.773Z,99.90
2018-09-29T01:24:43.503Z,99.90
2018-09-29T01:27:14.224Z,99.90
2018-09-29T01:29:44.823Z,99.90
2018-09-29T01:32:15.575Z,99.90
2018-09-29T01:34:46.070Z,99.90
2018-09-29T01:37:16.574Z,99.90
2018-09-29T01:39:47.157Z,99.90
2018-09-29T01:42:18.011Z,99.90
2018-09-29T01:44:49.105Z,99.90
2018-09-29T01:47:20.474Z,99.90
2018-09-29T01:49:51.412Z,99.90
2018-09-29T01:52:22.136Z,99.90
2018-09-29T01:54:52.662Z,99.90
2018-09-29T01:57:23.385Z,99.90
2018-09-29T01:59:53.770Z,99.90
2018-09-29T02:02:24.661Z,99.90
2018-09-29T02:04:55.497Z,99.90
2018-09-29T02:07:26.892Z,99.90
2018-09-29T02:09:57.720Z,99.90
2018-09-29T02:12:28.202Z,99.90
2018-09-29T02:14:58.726Z,99.90
2018-09-29T02:17:29.161Z,99.90
2018-09-29T02:19:59.779Z,99.90
2018-09-29T02:22:31.124Z,99.90
2018-09-29T02:25:01.758Z,99.90
2018-09-29T02:27:32.666Z,99.90
2018-09-29T02:30:03.277Z,99.90
2018-09-29T02:32:33.919Z,99.90
2018-09-29T02:35:04.869Z,99.90
2018-09-29T02:37:35.421Z,99.90
2018-09-29T02:40:06.054Z,99.90
2018-09-29T02:42:36.894Z,99.90
2018-09-29T02:45:08.035Z,99.90
2018-09-29T02:47:38.802Z,99.90
2018-09-29T02:50:09.442Z,99.90
2018-09-29T02:52:40.077Z,99.90
2018-09-29T02:55:10.627Z,99.90
2018-09-29T02:57:41.110Z,99.90
2018-09-29T03:00:11.974Z,99.90
2018-09-29T03:02:42.408Z,99.90
2018-09-29T03:05:13.177Z,99.90
2018-09-29T03:07:43.812Z,99.90
2018-09-29T03:10:14.541Z,99.90
2018-09-29T03:12:45.232Z,99.90
2018-09-29T03:15:15.636Z,99.90
2018-09-29T03:17:46.214Z,99.90
2018-09-29T03:20:16.970Z,99.90
2018-09-29T03:22:47.851Z,99.90
2018-09-29T03:25:18.748Z,99.90
2018-09-29T03:27:49.537Z,99.90
2018-09-29T03:30:20.105Z,99.90
2018-09-29T03:32:50.727Z,99.90
2018-09-29T03:35:21.632Z,99.90
2018-09-29T03:37:52.074Z,99.90
2018-09-29T03:40:23.108Z,99.90
2018-09-29T03:42:53.773Z,99.90
2018-09-29T03:45:24.483Z,99.90
2018-09-29T03:47:55.105Z,99.90
2018-09-29T03:50:25.750Z,99.90
2018-09-29T03:52:56.330Z,99.90
2018-09-29T03:55:27.023Z,99.90
2018-09-29T03:57:57.643Z,99.90
2018-09-29T04:00:28.184Z,99.90
2018-09-29T04:02:58.971Z,99.90
2018-09-29T04:05:29.858Z,99.90
2018-09-29T04:08:00.839Z,99.90
2018-09-29T04:10:31.842Z,99.90
2018-09-29T04:13:02.520Z,99.90
2018-09-29T04:15:33.409Z,99.90
2018-09-29T04:18:04.265Z,99.90
2018-09-29T04:20:34.995Z,99.90
2018-09-29T04:23:05.679Z,99.90
2018-09-29T04:25:36.247Z,99.90
2018-09-29T04:28:07.136Z,99.90
2018-09-29T04:30:37.898Z,99.90
2018-09-29T04:33:14.048Z,99.90
2018-09-29T04:35:44.775Z,99.90
2018-09-29T04:38:15.612Z,99.90
2018-09-29T04:40:46.459Z,99.90
2018-09-29T04:43:17.651Z,99.90
2018-09-29T04:45:49.102Z,99.90
2018-09-29T04:48:19.500Z,99.90
2018-09-29T04:50:50.664Z,99.90
2018-09-29T04:53:21.505Z,99.90
2018-09-29T04:55:52.894Z,99.90
2018-09-29T04:58:23.908Z,99.90
2018-09-29T05:00:54.370Z,99.90
2018-09-29T05:03:25.075Z,99.90
2018-09-29T05:05:55.738Z,99.90
2018-09-29T05:08:26.304Z,99.90
2018-09-29T05:10:56.784Z,99.90
2018-09-29T05:13:27.408Z,99.90
2018-09-29T05:15:58.035Z,99.90
2018-09-29T05:18:29.956Z,99.90
2018-09-29T05:21:00.756Z,99.90
2018-09-29T05:23:31.660Z,99.90
2018-09-29T05:26:02.479Z,99.90
2018-09-29T05:28:33.101Z,99.90
2018-09-29T05:31:04.018Z,99.90
2018-09-29T05:33:35.539Z,99.90
2018-09-29T05:36:06.735Z,99.90
2018-09-29T05:38:37.470Z,99.90
2018-09-29T05:41:08.504Z,99.90
2018-09-29T05:43:39.217Z,99.90
2018-09-29T05:46:10.546Z,99.90
2018-09-29T05:48:41.789Z,99.90
2018-09-29T05:51:12.663Z,99.90
2018-09-29T05:53:44.045Z,99.90
2018-09-29T05:56:14.771Z,99.90
2018-09-29T05:58:45.615Z,99.90
2018-09-29T06:01:16.995Z,99.90
2018-09-29T06:03:47.771Z,99.90
2018-09-29T06:06:18.334Z,99.90
2018-09-29T06:08:49.288Z,99.90
2018-09-29T06:11:19.811Z,99.90
2018-09-29T06:13:50.430Z,99.90
2018-09-29T06:16:21.172Z,99.90
2018-09-29T06:18:52.080Z,99.90
2018-09-29T06:21:22.643Z,99.90
2018-09-29T06:23:53.317Z,99.90
2018-09-29T06:26:24.957Z,99.90
2018-09-29T06:28:56.790Z,99.90
2018-09-29T06:31:27.689Z,99.90
2018-09-29T06:33:58.263Z,99.90
2018-09-29T06:36:32.739Z,99.90
2018-09-29T06:39:03.383Z,99.90
2018-09-29T06:41:34.161Z,99.90
2018-09-29T06:44:04.743Z,99.90
2018-09-29T06:46:35.580Z,99.90
2018-09-29T06:49:06.216Z,99.90
2018-09-29T06:51:36.843Z,99.90
2018-09-29T06:54:07.946Z,99.90
2018-09-29T06:56:39.506Z,99.90
2018-09-29T06:59:10.637Z,99.90
2018-09-29T07:01:41.794Z,99.90
2018-09-29T07:04:14.033Z,99.90
2018-09-29T07:06:45.004Z,99.90
2018-09-29T07:09:16.129Z,99.90
2018-09-29T07:11:46.699Z,99.90
2018-09-29T07:14:17.602Z,99.90
2018-09-29T07:16:48.096Z,99.90
2018-09-29T07:19:18.517Z,99.90
2018-09-29T07:21:49.107Z,99.90
2018-09-29T07:24:19.689Z,99.90
2018-09-29T07:26:50.358Z,99.90
2018-09-29T07:29:20.984Z,99.90
2018-09-29T07:31:51.577Z,99.90
2018-09-29T07:34:22.192Z,99.90
2018-09-29T07:36:52.989Z,99.90
2018-09-29T07:39:23.434Z,99.90
2018-09-29T07:41:53.993Z,99.90
2018-09-29T07:44:24.668Z,99.10
2018-09-29T07:46:55.289Z,97.80
2018-09-29T07:49:25.897Z,98.20
2018-09-29T07:51:56.460Z,95.60
2018-09-29T07:54:27.094Z,94.40
2018-09-29T07:56:57.943Z,93.50
2018-09-29T07:59:28.638Z,91.20
2018-09-29T08:01:59.595Z,91.10
2018-09-29T08:04:36.092Z,90.50
2018-09-29T08:07:06.776Z,87.90
2018-09-29T08:09:37.291Z,84.50
2018-09-29T08:12:08.238Z,82.80
2018-09-29T08:14:39.185Z,80.10
2018-09-29T08:17:09.805Z,80.10
2018-09-29T08:19:40.557Z,78.00
2018-09-29T08:22:11.174Z,74.30
2018-09-29T08:24:42.224Z,72.50
2018-09-29T08:27:13.111Z,71.50
2018-09-29T08:29:44.940Z,69.10
2018-09-29T08:32:15.808Z,67.10
2018-09-29T08:34:46.841Z,63.40
2018-09-29T08:37:17.464Z,63.60
2018-09-29T08:39:48.051Z,63.00
2018-09-29T08:42:18.598Z,63.40
2018-09-29T08:44:49.108Z,62.90
2018-09-29T08:47:19.818Z,62.90
2018-09-29T08:49:50.814Z,60.20
2018-09-29T08:52:21.661Z,60.80
2018-09-29T08:54:52.368Z,59.50
2018-09-29T08:57:22.845Z,58.90
2018-09-29T08:59:53.365Z,59.10
2018-09-29T09:02:23.891Z,59.80
2018-09-29T09:04:54.330Z,59.10
2018-09-29T09:07:24.875Z,58.80
2018-09-29T09:09:55.593Z,58.00
2018-09-29T09:12:25.993Z,58.30
2018-09-29T09:14:56.582Z,57.30
2018-09-29T09:17:27.419Z,57.30
2018-09-29T09:19:58.038Z,57.00
2018-09-29T09:22:29.928Z,56.90
2018-09-29T09:25:01.450Z,57.20
2018-09-29T09:27:32.075Z,55.20
2018-09-29T09:30:03.417Z,55.10
2018-09-29T09:32:34.624Z,55.20
2018-09-29T09:35:05.528Z,56.00
2018-09-29T09:37:36.196Z,54.20
2018-09-29T09:40:08.155Z,52.90
2018-09-29T09:42:39.158Z,52.70
2018-09-29T09:45:09.900Z,52.80
2018-09-29T09:47:41.180Z,53.90
2018-09-29T09:50:11.789Z,53.20
2018-09-29T09:52:42.455Z,53.20
2018-09-29T09:55:13.084Z,51.50
2018-09-29T09:57:47.860Z,51.80
2018-09-29T10:00:19.962Z,51.10
2018-09-29T10:02:55.548Z,50.90
2018-09-29T10:05:26.595Z,50.50
2018-09-29T10:07:57.469Z,51.00
2018-09-29T10:10:27.879Z,50.80
2018-09-29T10:12:58.319Z,49.60
2018-09-29T10:15:29.158Z,49.60
2018-09-29T10:17:59.809Z,50.00
2018-09-29T10:20:30.328Z,50.40
2018-09-29T10:23:00.859Z,49.70
2018-09-29T10:25:31.734Z,48.70
2018-09-29T10:28:02.365Z,47.60
2018-09-29T10:30:32.920Z,47.70
2018-09-29T10:33:03.401Z,48.10
2018-09-29T10:35:33.895Z,47.00
2018-09-29T10:38:04.492Z,45.50
2018-09-29T10:40:34.961Z,46.00
2018-09-29T10:43:05.594Z,46.40
2018-09-29T10:45:36.058Z,46.70
2018-09-29T10:48:06.493Z,46.30
2018-09-29T10:50:36.890Z,45.80
2018-09-29T10:53:07.430Z,45.20
2018-09-29T10:55:38.255Z,45.00
2018-09-29T10:58:08.612Z,44.00
2018-09-29T11:00:38.921Z,44.20
2018-09-29T11:03:09.561Z,44.90
2018-09-29T11:05:40.058Z,45.60
2018-09-29T11:08:10.844Z,44.90
2018-09-29T11:10:41.537Z,45.70
2018-09-29T11:13:11.999Z,44.80
2018-09-29T11:15:42.386Z,44.70
2018-09-29T11:18:13.095Z,44.90
2018-09-29T11:20:44.178Z,44.30
2018-09-29T11:23:15.005Z,44.60
2018-09-29T11:25:45.640Z,44.50
2018-09-29T11:28:16.247Z,44.50
2018-09-29T11:30:46.796Z,43.20
2018-09-29T11:33:22.221Z,42.50
2018-09-29T11:35:52.918Z,43.30
2018-09-29T11:38:23.878Z,42.60
2018-09-29T11:40:55.075Z,43.30
2018-09-29T11:43:25.772Z,43.00
2018-09-29T11:45:56.609Z,42.30
2018-09-29T11:48:27.527Z,43.10
2018-09-29T11:50:58.318Z,43.30
2018-09-29T11:53:29.160Z,42.40
2018-09-29T11:55:59.818Z,43.50
2018-09-29T11:58:30.466Z,43.10
2018-09-29T12:01:00.984Z,42.60
2018-09-29T12:03:31.502Z,43.60
2018-09-29T12:06:02.137Z,43.90
2018-09-29T12:08:32.530Z,43.20
2018-09-29T12:11:02.908Z,43.10
2018-09-29T12:13:33.497Z,41.40
2018-09-29T12:16:03.898Z,41.00
2018-09-29T12:18:34.492Z,39.70
2018-09-29T12:21:05.165Z,40.20
2018-09-29T12:23:35.640Z,41.10
2018-09-29T12:26:06.063Z,41.20
2018-09-29T12:28:36.614Z,41.50
2018-09-29T12:31:07.581Z,41.50
2018-09-29T12:33:37.982Z,41.50
2018-09-29T12:36:08.490Z,41.80
2018-09-29T12:38:38.951Z,42.00
2018-09-29T12:41:09.548Z,40.90
2018-09-29T12:43:40.170Z,40.60
2018-09-29T12:46:10.800Z,41.70
2018-09-29T12:48:41.403Z,42.80
2018-09-29T12:51:12.116Z,43.10
2018-09-29T12:53:42.587Z,43.50
2018-09-29T12:56:14.443Z,43.20
2018-09-29T12:58:45.161Z,43.30
2018-09-29T13:01:15.806Z,43.30
2018-09-29T13:03:46.340Z,43.80
2018-09-29T13:06:16.980Z,43.60
2018-09-29T13:08:47.440Z,43.30
2018-09-29T13:11:18.951Z,42.00
2018-09-29T13:13:49.760Z,42.30
2018-09-29T13:16:20.432Z,42.40
2018-09-29T13:18:51.301Z,43.00
2018-09-29T13:21:22.216Z,43.40
2018-09-29T13:23:52.836Z,43.20
2018-09-29T13:26:23.347Z,43.20
2018-09-29T13:28:53.868Z,43.40
2018-09-29T13:31:24.664Z,44.00
2018-09-29T13:33:55.419Z,43.30
2018-09-29T13:36:26.105Z,43.40
2018-09-29T13:38:56.626Z,42.60
2018-09-29T13:41:27.042Z,42.80
2018-09-29T13:43:57.498Z,42.40
2018-09-29T13:46:27.897Z,42.60
2018-09-29T13:48:58.382Z,42.60
2018-09-29T13:51:28.880Z,42.60
2018-09-29T13:53:59.237Z,42.10
2018-09-29T13:56:29.974Z,41.70
2018-09-29T13:59:00.361Z,42.00
2018-09-29T14:01:30.960Z,42.40
2018-09-29T14:04:01.636Z,41.70
2018-09-29T14:06:32.412Z,42.10
2018-09-29T14:09:03.140Z,42.00
2018-09-29T14:11:33.868Z,42.20
2018-09-29T14:14:04.843Z,42.70
2018-09-29T14:16:35.286Z,42.40
2018-09-29T14:19:06.550Z,42.20
2018-09-29T14:21:37.556Z,42.20
2018-09-29T14:24:08.079Z,41.60
2018-09-29T14:26:39.000Z,42.00
2018-09-29T14:29:10.060Z,41.50
2018-09-29T14:31:40.569Z,40.90
2018-09-29T14:34:11.221Z,40.50
2018-09-29T14:36:41.858Z,40.50
2018-09-29T14:39:12.766Z,41.40
2018-09-29T14:41:43.374Z,41.50
2018-09-29T14:44:13.994Z,41.30
2018-09-29T14:46:44.545Z,40.90
2018-09-29T14:49:15.093Z,41.00
2018-09-29T14:51:45.455Z,40.90
2018-09-29T14:54:16.047Z,41.70
2018-09-29T14:56:46.641Z,41.40
2018-09-29T14:59:17.264Z,41.20
2018-09-29T15:01:47.725Z,41.30
2018-09-29T15:04:18.205Z,41.20
2018-09-29T15:06:49.055Z,41.00
2018-09-29T15:09:19.460Z,41.50
2018-09-29T15:11:50.065Z,41.60
2018-09-29T15:14:20.628Z,41.50
2018-09-29T15:16:51.137Z,41.70
2018-09-29T15:22:30.068Z,41.10
2018-09-29T15:25:06.303Z,41.50
2018-09-29T15:27:52.242Z,42.10
2018-09-29T15:30:22.618Z,41.10
2018-09-29T15:32:53.141Z,41.00
2018-09-29T15:35:23.794Z,41.30
2018-09-29T15:37:54.069Z,41.40
2018-09-29T15:40:25.375Z,41.20
2018-09-29T15:42:55.845Z,41.80
2018-09-29T15:45:26.222Z,42.00
2018-09-29T15:47:56.745Z,42.70
2018-09-29T15:50:27.215Z,42.40
2018-09-29T15:52:57.791Z,42.70
2018-09-29T15:55:28.470Z,42.10
2018-09-29T15:57:59.135Z,42.00
2018-09-29T16:00:29.539Z,42.30
2018-09-29T16:03:00.085Z,42.30
2018-09-29T16:05:30.563Z,42.90
2018-09-29T16:08:01.246Z,43.00
2018-09-29T16:10:31.849Z,43.30
2018-09-29T16:13:02.407Z,43.60
2018-09-29T16:15:32.946Z,43.60
2018-09-29T16:18:05.628Z,44.10
2018-09-29T16:20:36.497Z,44.10
2018-09-29T16:23:07.093Z,44.60
2018-09-29T16:25:37.644Z,45.00
2018-09-29T16:28:08.513Z,44.40
2018-09-29T16:30:39.305Z,45.00
2018-09-29T16:33:09.977Z,45.00
2018-09-29T16:35:41.752Z,45.20
2018-09-29T16:38:13.186Z,45.20
2018-09-29T16:40:44.498Z,46.00
2018-09-29T16:43:15.064Z,46.20
2018-09-29T16:45:45.572Z,46.30
2018-09-29T16:48:25.974Z,47.00
2018-09-29T16:50:56.437Z,47.00
2018-09-29T16:53:26.786Z,47.30
2018-09-29T16:55:57.870Z,47.50
2018-09-29T16:58:28.437Z,48.20
2018-09-29T17:01:02.776Z,48.60
2018-09-29T17:03:33.721Z,48.40
2018-09-29T17:06:04.099Z,49.40
2018-09-29T17:08:34.463Z,49.70
2018-09-29T17:11:04.936Z,49.90
2018-09-29T17:13:35.780Z,50.20
2018-09-29T17:16:06.452Z,50.50
2018-09-29T17:18:37.161Z,50.80
2018-09-29T17:21:07.788Z,51.00
2018-09-29T17:23:38.691Z,52.00
2018-09-29T17:26:09.083Z,52.20
2018-09-29T17:28:39.697Z,51.80
2018-09-29T17:31:10.353Z,51.90
2018-09-29T17:33:41.202Z,52.50
2018-09-29T17:36:11.837Z,52.90
2018-09-29T17:38:42.386Z,53.80
2018-09-29T17:41:12.894Z,54.50
2018-09-29T17:43:43.467Z,54.70
2018-09-29T17:46:14.514Z,54.80
2018-09-29T17:48:44.996Z,54.90
2018-09-29T17:51:15.646Z,54.80
2018-09-29T17:53:46.178Z,55.20
2018-09-29T17:56:16.676Z,55.90
2018-09-29T17:58:47.077Z,55.90
2018-09-29T18:01:17.659Z,56.40
2018-09-29T18:03:48.099Z,57.10
2018-09-29T18:06:18.631Z,57.90
2018-09-29T18:08:49.675Z,58.60
2018-09-29T18:11:20.475Z,58.70
2018-09-29T18:13:51.077Z,59.20
2018-09-29T18:16:21.455Z,59.90
2018-09-29T18:18:52.056Z,60.50
2018-09-29T18:21:22.687Z,61.50
2018-09-29T18:23:53.264Z,61.00
2018-09-29T18:26:23.696Z,61.00
2018-09-29T18:28:54.115Z,61.10
2018-09-29T18:31:24.536Z,61.80
2018-09-29T18:33:55.160Z,62.00
2018-09-29T18:36:25.845Z,63.10
2018-09-29T18:38:56.526Z,63.10
2018-09-29T18:41:27.693Z,63.70
2018-09-29T18:43:58.703Z,64.00
2018-09-29T18:46:29.581Z,64.60
2018-09-29T18:49:00.695Z,64.70
2018-09-29T18:51:31.531Z,65.50
2018-09-29T18:54:01.982Z,66.20
2018-09-29T18:56:32.472Z,66.80
2018-09-29T18:59:03.011Z,67.10
2018-09-29T19:01:33.751Z,68.00
2018-09-29T19:04:04.509Z,68.20
2018-09-29T19:06:34.927Z,69.10
2018-09-29T19:09:07.709Z,70.10
2018-09-29T19:11:38.870Z,71.10
2018-09-29T19:14:09.496Z,71.90
2018-09-29T19:16:40.078Z,72.10
2018-09-29T19:19:10.929Z,73.70
2018-09-29T19:21:41.936Z,74.00
2018-09-29T19:24:12.517Z,73.90
2018-09-29T19:26:43.136Z,73.50
2018-09-29T19:29:13.906Z,73.20
2018-09-29T19:31:44.361Z,73.20
2018-09-29T19:34:14.677Z,74.10
2018-09-29T19:36:45.174Z,74.00
2018-09-29T19:39:15.733Z,74.40
2018-09-29T19:41:46.191Z,74.90
2018-09-29T19:44:16.754Z,76.30
2018-09-29T19:46:47.300Z,76.60
2018-09-29T19:49:18.078Z,77.20
2018-09-29T19:51:48.627Z,77.30
2018-09-29T19:54:19.345Z,77.70
2018-09-29T19:56:50.087Z,78.40
2018-09-29T19:59:20.677Z,78.90
2018-09-29T20:01:51.224Z,79.20
2018-09-29T20:04:21.727Z,79.30
2018-09-29T20:06:52.328Z,79.70
2018-09-29T20:09:22.777Z,79.40
2018-09-29T20:11:53.359Z,80.10
2018-09-29T20:14:23.745Z,80.80
2018-09-29T20:16:54.153Z,81.40
2018-09-29T20:19:24.660Z,82.50
2018-09-29T20:21:55.054Z,85.00
2018-09-29T20:24:25.843Z,87.80
2018-09-29T20:26:56.442Z,90.60
2018-09-29T20:29:26.841Z,91.70
2018-09-29T20:31:57.293Z,93.80
2018-09-29T20:34:28.174Z,95.70
2018-09-29T20:36:58.654Z,97.20
2018-09-29T20:39:29.746Z,99.70
2018-09-29T20:42:00.267Z,99.90
2018-09-29T20:44:31.090Z,99.90
2018-09-29T20:47:01.456Z,99.90
2018-09-29T20:49:32.155Z,99.90
2018-09-29T20:52:02.827Z,99.90
2018-09-29T20:54:33.355Z,99.90
2018-09-29T20:57:04.021Z,99.90
2018-09-29T20:59:34.660Z,99.90
2018-09-29T21:02:05.215Z,99.90
2018-09-29T21:04:35.884Z,99.90
2018-09-29T21:07:06.891Z,99.90
2018-09-29T21:09:37.560Z,99.90
2018-09-29T21:12:08.418Z,99.90
2018-09-29T21:14:39.180Z,99.90
2018-09-29T21:17:10.080Z,99.90
2018-09-29T21:19:40.612Z,99.90
2018-09-29T21:22:11.269Z,99.90
2018-09-29T21:24:41.994Z,99.90
2018-09-29T21:27:13.021Z,99.90
2018-09-29T21:29:43.970Z,99.90
2018-09-29T21:32:14.515Z,99.90
2018-09-29T21:34:44.973Z,99.90
2018-09-29T21:37:15.447Z,99.90
2018-09-29T21:39:45.924Z,99.90
2018-09-29T21:42:16.452Z,99.90
2018-09-29T21:44:47.032Z,99.90
2018-09-29T21:47:17.521Z,99.90
2018-09-29T21:49:48.090Z,99.90
2018-09-29T21:52:18.772Z,99.90
2018-09-29T21:54:49.323Z,99.90
2018-09-29T21:57:20.046Z,99.90
2018-09-29T21:59:50.477Z,99.90
2018-09-29T22:02:20.981Z,99.90
2018-09-29T22:04:51.577Z,99.90
2018-09-29T22:07:22.135Z,99.90
2018-09-29T22:09:52.539Z,99.90
2018-09-29T22:12:23.061Z,99.90
2018-09-29T22:14:53.723Z,99.90
2018-09-29T22:17:24.195Z,99.90
2018-09-29T22:19:54.959Z,99.90
2018-09-29T22:22:25.353Z,99.90
2018-09-29T22:24:55.732Z,99.90
2018-09-29T22:27:26.376Z,99.90
2018-09-29T22:29:56.945Z,99.90
2018-09-29T22:32:27.406Z,99.90
2018-09-29T22:34:57.968Z,99.90
2018-09-29T22:37:28.611Z,99.90
2018-09-29T22:39:59.369Z,99.90
2018-09-29T22:42:30.148Z,99.90
2018-09-29T22:45:01.029Z,99.90
2018-09-29T22:47:31.905Z,99.90
2018-09-29T22:50:02.870Z,99.90
2018-09-29T22:52:33.275Z,99.90
2018-09-29T22:55:03.706Z,99.90
2018-09-29T22:57:34.839Z,99.90
2018-09-29T23:00:05.596Z,99.90
2018-09-29T23:02:36.301Z,99.90
2018-09-29T23:05:07.346Z,99.90
2018-09-29T23:07:38.044Z,99.90
2018-09-29T23:10:08.768Z,99.90
2018-09-29T23:12:39.907Z,99.90
2018-09-29T23:15:10.946Z,99.90
2018-09-29T23:17:41.493Z,99.90
2018-09-29T23:20:12.023Z,99.90
2018-09-29T23:22:42.631Z,99.90
2018-09-29T23:25:13.683Z,99.90
2018-09-29T23:27:44.131Z,99.90
2018-09-29T23:30:14.534Z,99.90
2018-09-29T23:32:45.106Z,99.90
2018-09-29T23:35:15.846Z,99.90
2018-09-29T23:37:46.490Z,99.90
2018-09-29T23:40:17.117Z,99.90
2018-09-29T23:42:47.594Z,99.90
2018-09-29T23:45:18.238Z,99.90
2018-09-29T23:47:48.869Z,99.90
2018-09-29T23:50:19.481Z,99.90
2018-09-29T23:52:50.085Z,99.90
2018-09-29T23:55:20.634Z,99.90
2018-09-29T23:57:51.149Z,99.90
